LGTS/SKG METAR and TAF weather

Enter ICAO airport designator
Station Type Date Time Source
LGTS METAR 2021/03/08 15:20 UTC NOAA

LGTS 081520Z 20009KT 9999 FEW025 13/06 Q1015 NOSIG


Station Type Date Time Source
LGTS Decoded METAR 2021/03/08 15:20 UTC NOAA

Thessaloniki Airport , Greece (LGTS) 40-31N 022-58E 4M
Mar 08, 2021 - 10:20 AM EST / 2021.03.08 1520 UTC
Wind: from the SSW (200 degrees) at 10 MPH (9 KT):0
Visibility: greater than 7 mile(s):0
Sky conditions: mostly clear
Temperature: 55 F (13 C)
Dew Point: 42 F (6 C)
Relative Humidity: 62%
Pressure (altimeter): 29.97 in. Hg (1015 hPa)
ob: LGTS 081520Z 20009KT 9999 FEW025 13/06 Q1015 NOSIG
cycle: 15

Station Type Date Time Source
LGTS TAF 2021/03/08 12:16 UTC NOAA

TAF LGTS 081100Z 0812/0912 VRB03KT 9999 FEW025
BECMG 0822/0824 FEW010 BKN025 PROB30
TEMPO 0900/0912 7000 RA

Example: see airport list